This is the latest recevied weather packets stored in our database for station/object OK1VCF-5. If no packets are shown the sender has not sent any weather packets the latest 10 day(s).
| Time | Temp. | Humidity | Pressure | Rain* | Wind** | Luminosity | Snow |
|---|---|---|---|---|---|---|---|
| 1777612170 | 2.22° C | 80% | 1035.2 hPa | - | - | - | - |
| 1777611270 | 1.11° C | 84% | 1035.1 hPa | - | - | - | - |
| 1777610367 | 1.11° C | 86% | 1035 hPa | - | - | - | - |
| 1777609468 | 0° C | 87% | 1034.8 hPa | - | - | - | - |
| 1777608568 | 0° C | 88% | 1034.9 hPa | - | - | - | - |
| 1777607666 | 0° C | 88% | 1034.8 hPa | - | - | - | - |
| 1777606765 | -0.56° C | 88% | 1034.7 hPa | - | - | - | - |
| 1777605865 | 0° C | 88% | 1034.8 hPa | - | - | - | - |
| 1777604962 | 0° C | 88% | 1034.8 hPa | - | - | - | - |
| 1777604066 | 0° C | 87% | 1034.7 hPa | - | - | - | - |
| 1777603163 | 0° C | 87% | 1034.6 hPa | - | - | - | - |
| 1777602260 | 0° C | 86% | 1034.6 hPa | - | - | - | - |
| 1777601361 | 0° C | 86% | 1034.6 hPa | - | - | - | - |
| 1777600460 | 0° C | 86% | 1034.4 hPa | - | - | - | - |
| 1777599560 | 0° C | 84% | 1034.5 hPa | - | - | - | - |
| 1777598694 | 0.56° C | 84% | 1034.4 hPa | - | - | - | - |
| 1777598658 | 0.56° C | 84% | 1034.4 hPa | - | - | - | - |
| 1777597756 | 0.56° C | 84% | 1034.4 hPa | - | - | - | - |
| 1777596857 | 1.11° C | 83% | 1034.4 hPa | - | - | - | - |
| 1777595957 | 1.11° C | 83% | 1034.2 hPa | - | - | - | - |
| 1777595055 | 1.11° C | 83% | 1034.4 hPa | - | - | - | - |
| 1777594156 | 1.11° C | 81% | 1034.4 hPa | - | - | - | - |
| 1777593255 | 1.11° C | 82% | 1034.2 hPa | - | - | - | - |
| 1777592353 | 2.22° C | 78% | 1034.3 hPa | - | - | - | - |
| 1777591452 | 2.22° C | 78% | 1034.4 hPa | - | - | - | - |
* Rain since midnight (hover to see other rain measurements)
** Current wind speed in m/s (hover to see current wind gust speed)